sensor_id;sensor_type;location;lat;lon;timestamp;temperature;humidity
14924;DHT22;7554;43.600;1.480;2023-03-01T00:01:01;2.80;1.00
14924;DHT22;7554;43.600;1.480;2023-03-01T00:03:29;3.00;1.00
14924;DHT22;7554;43.600;1.480;2023-03-01T00:05:57;3.00;1.00
14924;DHT22;7554;43.600;1.480;2023-03-01T00:08:25;3.00;1.00
14924;DHT22;7554;43.600;1.480;2023-03-01T00:11:00;3.00;1.00
14924;DHT22;7554;43.600;1.480;2023-03-01T00:13:28;3.00;1.00
14924;DHT22;7554;43.600;1.480;2023-03-01T00:15:55;3.00;1.00
14924;DHT22;7554;43.600;1.480;2023-03-01T00:18:23;2.90;1.00
14924;DHT22;7554;43.600;1.480;2023-03-01T00:20:51;2.90;1.00
14924;DHT22;7554;43.600;1.480;2023-03-01T00:23:20;2.90;1.00
14924;DHT22;7554;43.600;1.480;2023-03-01T00:25:47;3.00;1.00
14924;DHT22;7554;43.600;1.480;2023-03-01T00:28:15;3.00;1.00
14924;DHT22;7554;43.600;1.480;2023-03-01T00:30:42;3.10;1.00
14924;DHT22;7554;43.600;1.480;2023-03-01T00:33:10;3.10;1.00
14924;DHT22;7554;43.600;1.480;2023-03-01T00:35:37;3.20;1.00
14924;DHT22;7554;43.600;1.480;2023-03-01T00:38:05;3.10;1.00
14924;DHT22;7554;43.600;1.480;2023-03-01T00:40:34;3.00;1.00
14924;DHT22;7554;43.600;1.480;2023-03-01T00:43:03;2.90;1.00
14924;DHT22;7554;43.600;1.480;2023-03-01T00:45:30;2.80;1.00
14924;DHT22;7554;43.600;1.480;2023-03-01T00:47:58;2.80;1.00
14924;DHT22;7554;43.600;1.480;2023-03-01T00:50:25;2.70;1.00
14924;DHT22;7554;43.600;1.480;2023-03-01T00:52:54;2.70;1.00
14924;DHT22;7554;43.600;1.480;2023-03-01T00:55:21;2.60;1.00
14924;DHT22;7554;43.600;1.480;2023-03-01T00:57:50;2.50;1.00
14924;DHT22;7554;43.600;1.480;2023-03-01T01:00:19;2.40;1.00
14924;DHT22;7554;43.600;1.480;2023-03-01T01:02:46;2.40;1.00
14924;DHT22;7554;43.600;1.480;2023-03-01T01:05:14;2.30;1.00
14924;DHT22;7554;43.600;1.480;2023-03-01T01:07:47;2.30;1.00
14924;DHT22;7554;43.600;1.480;2023-03-01T01:10:15;2.30;1.00
14924;DHT22;7554;43.600;1.480;2023-03-01T01:12:44;2.30;1.00
14924;DHT22;7554;43.600;1.480;2023-03-01T01:15:13;2.20;1.00
14924;DHT22;7554;43.600;1.480;2023-03-01T01:17:42;2.20;1.00
14924;DHT22;7554;43.600;1.480;2023-03-01T01:20:11;2.20;1.00
14924;DHT22;7554;43.600;1.480;2023-03-01T01:22:38;2.10;1.00
14924;DHT22;7554;43.600;1.480;2023-03-01T01:25:06;2.10;1.00
14924;DHT22;7554;43.600;1.480;2023-03-01T01:27:33;2.00;1.00
14924;DHT22;7554;43.600;1.480;2023-03-01T01:30:01;2.00;1.00
14924;DHT22;7554;43.600;1.480;2023-03-01T01:32:31;2.00;1.00
14924;DHT22;7554;43.600;1.480;2023-03-01T01:34:58;2.00;1.00
14924;DHT22;7554;43.600;1.480;2023-03-01T01:37:25;1.90;1.00
14924;DHT22;7554;43.600;1.480;2023-03-01T01:39:57;1.90;1.00
14924;DHT22;7554;43.600;1.480;2023-03-01T01:42:25;1.90;1.00
14924;DHT22;7554;43.600;1.480;2023-03-01T01:45:28;1.80;1.00
14924;DHT22;7554;43.600;1.480;2023-03-01T01:47:59;1.80;1.00
14924;DHT22;7554;43.600;1.480;2023-03-01T01:50:27;1.70;1.00
14924;DHT22;7554;43.600;1.480;2023-03-01T01:53:06;1.70;1.00
14924;DHT22;7554;43.600;1.480;2023-03-01T01:55:37;1.70;1.00
14924;DHT22;7554;43.600;1.480;2023-03-01T01:58:08;1.70;1.00
14924;DHT22;7554;43.600;1.480;2023-03-01T02:00:37;1.60;1.00
14924;DHT22;7554;43.600;1.480;2023-03-01T02:03:11;1.60;1.00
14924;DHT22;7554;43.600;1.480;2023-03-01T02:05:42;1.60;1.00
14924;DHT22;7554;43.600;1.480;2023-03-01T02:08:12;1.50;1.00
14924;DHT22;7554;43.600;1.480;2023-03-01T02:10:41;1.60;1.00
14924;DHT22;7554;43.600;1.480;2023-03-01T02:13:08;1.60;1.00
14924;DHT22;7554;43.600;1.480;2023-03-01T02:15:38;1.50;1.00
14924;DHT22;7554;43.600;1.480;2023-03-01T02:18:08;1.50;1.00
14924;DHT22;7554;43.600;1.480;2023-03-01T02:20:44;1.40;1.00
14924;DHT22;7554;43.600;1.480;2023-03-01T02:23:12;1.40;1.00
14924;DHT22;7554;43.600;1.480;2023-03-01T02:25:48;1.30;1.00
14924;DHT22;7554;43.600;1.480;2023-03-01T02:28:30;1.30;1.00
14924;DHT22;7554;43.600;1.480;2023-03-01T02:30:57;1.30;1.00
14924;DHT22;7554;43.600;1.480;2023-03-01T02:33:43;1.30;1.00
14924;DHT22;7554;43.600;1.480;2023-03-01T02:36:14;1.30;1.00
14924;DHT22;7554;43.600;1.480;2023-03-01T02:38:43;1.30;1.00
14924;DHT22;7554;43.600;1.480;2023-03-01T02:41:13;1.30;1.00
14924;DHT22;7554;43.600;1.480;2023-03-01T02:43:43;1.30;1.00
14924;DHT22;7554;43.600;1.480;2023-03-01T02:46:16;1.30;1.00
14924;DHT22;7554;43.600;1.480;2023-03-01T02:48:46;1.30;1.00
14924;DHT22;7554;43.600;1.480;2023-03-01T02:51:42;1.30;1.00
14924;DHT22;7554;43.600;1.480;2023-03-01T02:54:18;1.30;1.00
14924;DHT22;7554;43.600;1.480;2023-03-01T02:56:48;1.20;1.00
14924;DHT22;7554;43.600;1.480;2023-03-01T02:59:19;1.20;1.00
14924;DHT22;7554;43.600;1.480;2023-03-01T03:01:47;1.20;1.00
14924;DHT22;7554;43.600;1.480;2023-03-01T03:04:17;1.20;1.00
14924;DHT22;7554;43.600;1.480;2023-03-01T03:06:45;1.20;1.00
14924;DHT22;7554;43.600;1.480;2023-03-01T03:09:13;1.10;1.00
14924;DHT22;7554;43.600;1.480;2023-03-01T03:11:41;1.10;1.00
14924;DHT22;7554;43.600;1.480;2023-03-01T03:14:09;1.00;1.00
14924;DHT22;7554;43.600;1.480;2023-03-01T03:16:41;1.00;1.00
14924;DHT22;7554;43.600;1.480;2023-03-01T03:19:09;1.00;1.00
14924;DHT22;7554;43.600;1.480;2023-03-01T03:21:37;1.00;1.00
14924;DHT22;7554;43.600;1.480;2023-03-01T03:24:05;1.00;1.00
14924;DHT22;7554;43.600;1.480;2023-03-01T03:26:32;0.90;1.00
14924;DHT22;7554;43.600;1.480;2023-03-01T03:29:00;0.90;1.00
14924;DHT22;7554;43.600;1.480;2023-03-01T03:31:28;0.80;1.00
14924;DHT22;7554;43.600;1.480;2023-03-01T03:33:57;0.80;1.00
14924;DHT22;7554;43.600;1.480;2023-03-01T03:36:25;0.80;1.00
14924;DHT22;7554;43.600;1.480;2023-03-01T03:38:52;0.80;1.00
14924;DHT22;7554;43.600;1.480;2023-03-01T03:41:20;0.80;1.00
14924;DHT22;7554;43.600;1.480;2023-03-01T03:43:47;0.80;1.00
14924;DHT22;7554;43.600;1.480;2023-03-01T03:46:14;0.70;1.00
14924;DHT22;7554;43.600;1.480;2023-03-01T03:48:44;0.70;1.00
14924;DHT22;7554;43.600;1.480;2023-03-01T03:51:14;0.70;1.00
14924;DHT22;7554;43.600;1.480;2023-03-01T03:53:42;0.70;1.00
14924;DHT22;7554;43.600;1.480;2023-03-01T03:56:10;0.70;1.00
14924;DHT22;7554;43.600;1.480;2023-03-01T03:58:38;0.70;1.00
14924;DHT22;7554;43.600;1.480;2023-03-01T04:01:05;0.70;1.00
14924;DHT22;7554;43.600;1.480;2023-03-01T04:03:33;0.70;1.00
14924;DHT22;7554;43.600;1.480;2023-03-01T04:06:02;0.70;1.00
14924;DHT22;7554;43.600;1.480;2023-03-01T04:08:31;0.60;1.00
14924;DHT22;7554;43.600;1.480;2023-03-01T04:11:00;0.60;1.00
14924;DHT22;7554;43.600;1.480;2023-03-01T04:13:49;0.60;1.00
14924;DHT22;7554;43.600;1.480;2023-03-01T04:16:17;0.50;1.00
14924;DHT22;7554;43.600;1.480;2023-03-01T04:18:45;0.60;1.00
14924;DHT22;7554;43.600;1.480;2023-03-01T04:21:13;0.60;1.00
14924;DHT22;7554;43.600;1.480;2023-03-01T04:23:42;0.60;1.00
14924;DHT22;7554;43.600;1.480;2023-03-01T04:26:09;0.50;1.00
14924;DHT22;7554;43.600;1.480;2023-03-01T04:28:38;0.50;1.00
14924;DHT22;7554;43.600;1.480;2023-03-01T04:31:07;0.50;1.00
14924;DHT22;7554;43.600;1.480;2023-03-01T04:33:40;0.50;1.00
14924;DHT22;7554;43.600;1.480;2023-03-01T04:36:09;0.40;1.00
14924;DHT22;7554;43.600;1.480;2023-03-01T04:38:37;0.40;1.00
14924;DHT22;7554;43.600;1.480;2023-03-01T04:41:07;0.40;1.00
14924;DHT22;7554;43.600;1.480;2023-03-01T04:43:35;0.40;1.00
14924;DHT22;7554;43.600;1.480;2023-03-01T04:46:04;0.40;1.00
14924;DHT22;7554;43.600;1.480;2023-03-01T04:48:35;0.30;1.00
14924;DHT22;7554;43.600;1.480;2023-03-01T04:51:02;0.30;1.00
14924;DHT22;7554;43.600;1.480;2023-03-01T04:53:30;0.40;1.00
14924;DHT22;7554;43.600;1.480;2023-03-01T04:55:58;0.30;1.00
14924;DHT22;7554;43.600;1.480;2023-03-01T04:58:27;0.30;1.00
14924;DHT22;7554;43.600;1.480;2023-03-01T05:00:56;0.30;1.00
14924;DHT22;7554;43.600;1.480;2023-03-01T05:03:23;0.20;1.00
14924;DHT22;7554;43.600;1.480;2023-03-01T05:05:52;0.20;1.00
14924;DHT22;7554;43.600;1.480;2023-03-01T05:08:20;0.20;1.00
14924;DHT22;7554;43.600;1.480;2023-03-01T05:10:49;0.20;1.00
14924;DHT22;7554;43.600;1.480;2023-03-01T05:13:18;0.20;1.00
14924;DHT22;7554;43.600;1.480;2023-03-01T05:15:54;0.20;1.00
14924;DHT22;7554;43.600;1.480;2023-03-01T05:18:22;0.20;1.00
14924;DHT22;7554;43.600;1.480;2023-03-01T05:20:51;0.10;1.00
14924;DHT22;7554;43.600;1.480;2023-03-01T05:23:23;0.10;1.00
14924;DHT22;7554;43.600;1.480;2023-03-01T05:25:51;0.10;1.00
14924;DHT22;7554;43.600;1.480;2023-03-01T05:28:20;0.00;1.00
14924;DHT22;7554;43.600;1.480;2023-03-01T05:30:49;-0.10;1.00
14924;DHT22;7554;43.600;1.480;2023-03-01T05:33:17;-0.10;1.00
14924;DHT22;7554;43.600;1.480;2023-03-01T05:35:45;-0.10;1.00
14924;DHT22;7554;43.600;1.480;2023-03-01T05:38:15;-0.10;1.00
14924;DHT22;7554;43.600;1.480;2023-03-01T05:40:43;-0.10;1.00
14924;DHT22;7554;43.600;1.480;2023-03-01T05:43:12;-0.10;1.00
14924;DHT22;7554;43.600;1.480;2023-03-01T05:45:40;-0.10;1.00
14924;DHT22;7554;43.600;1.480;2023-03-01T05:48:11;-0.10;1.00
14924;DHT22;7554;43.600;1.480;2023-03-01T05:50:40;-0.10;1.00
14924;DHT22;7554;43.600;1.480;2023-03-01T05:53:10;-0.10;1.00
14924;DHT22;7554;43.600;1.480;2023-03-01T05:55:39;-0.30;1.00
14924;DHT22;7554;43.600;1.480;2023-03-01T05:58:09;-0.50;1.00
14924;DHT22;7554;43.600;1.480;2023-03-01T06:00:37;-0.60;1.00
14924;DHT22;7554;43.600;1.480;2023-03-01T06:03:04;-0.50;1.00
14924;DHT22;7554;43.600;1.480;2023-03-01T06:05:33;-0.50;1.00
14924;DHT22;7554;43.600;1.480;2023-03-01T06:08:01;-0.40;1.00
14924;DHT22;7554;43.600;1.480;2023-03-01T06:10:29;-0.40;1.00
14924;DHT22;7554;43.600;1.480;2023-03-01T06:12:56;-0.40;1.00
14924;DHT22;7554;43.600;1.480;2023-03-01T06:15:24;-0.40;1.00
14924;DHT22;7554;43.600;1.480;2023-03-01T06:17:54;-0.40;1.00
14924;DHT22;7554;43.600;1.480;2023-03-01T06:20:24;-0.40;1.00
14924;DHT22;7554;43.600;1.480;2023-03-01T06:22:53;-0.50;1.00
14924;DHT22;7554;43.600;1.480;2023-03-01T06:25:23;-0.50;1.00
14924;DHT22;7554;43.600;1.480;2023-03-01T06:27:51;-0.70;1.00
14924;DHT22;7554;43.600;1.480;2023-03-01T06:30:20;-0.70;1.00
14924;DHT22;7554;43.600;1.480;2023-03-01T06:32:48;-0.70;1.00
14924;DHT22;7554;43.600;1.480;2023-03-01T06:35:16;-0.70;1.00
14924;DHT22;7554;43.600;1.480;2023-03-01T06:37:45;-0.50;1.00
14924;DHT22;7554;43.600;1.480;2023-03-01T06:40:14;-0.40;1.00
14924;DHT22;7554;43.600;1.480;2023-03-01T06:42:43;-0.20;1.00
14924;DHT22;7554;43.600;1.480;2023-03-01T06:45:14;0.40;1.00
14924;DHT22;7554;43.600;1.480;2023-03-01T06:47:41;0.90;1.00
14924;DHT22;7554;43.600;1.480;2023-03-01T06:50:10;1.30;1.00
14924;DHT22;7554;43.600;1.480;2023-03-01T06:52:38;1.50;1.00
14924;DHT22;7554;43.600;1.480;2023-03-01T06:55:06;1.20;1.00
14924;DHT22;7554;43.600;1.480;2023-03-01T06:57:35;1.60;1.00
14924;DHT22;7554;43.600;1.480;2023-03-01T07:00:03;2.80;1.00
14924;DHT22;7554;43.600;1.480;2023-03-01T07:02:31;3.60;1.00
14924;DHT22;7554;43.600;1.480;2023-03-01T07:04:59;3.50;1.00
14924;DHT22;7554;43.600;1.480;2023-03-01T07:07:26;3.60;1.00
14924;DHT22;7554;43.600;1.480;2023-03-01T07:09:54;4.60;1.00
14924;DHT22;7554;43.600;1.480;2023-03-01T07:12:21;6.10;1.00
14924;DHT22;7554;43.600;1.480;2023-03-01T07:14:50;6.90;1.00
14924;DHT22;7554;43.600;1.480;2023-03-01T07:17:17;7.60;1.00
14924;DHT22;7554;43.600;1.480;2023-03-01T07:19:45;8.00;1.00
14924;DHT22;7554;43.600;1.480;2023-03-01T07:22:12;8.00;1.00
14924;DHT22;7554;43.600;1.480;2023-03-01T07:24:41;8.40;1.00
14924;DHT22;7554;43.600;1.480;2023-03-01T07:27:08;8.70;1.00
14924;DHT22;7554;43.600;1.480;2023-03-01T07:29:36;9.50;1.00
14924;DHT22;7554;43.600;1.480;2023-03-01T07:32:06;9.70;1.00
14924;DHT22;7554;43.600;1.480;2023-03-01T07:34:33;10.30;1.00
14924;DHT22;7554;43.600;1.480;2023-03-01T07:37:01;10.40;1.00
14924;DHT22;7554;43.600;1.480;2023-03-01T07:39:28;10.50;1.00
14924;DHT22;7554;43.600;1.480;2023-03-01T07:41:55;11.00;1.00
14924;DHT22;7554;43.600;1.480;2023-03-01T07:44:23;11.00;1.00
14924;DHT22;7554;43.600;1.480;2023-03-01T07:46:50;11.00;1.00
14924;DHT22;7554;43.600;1.480;2023-03-01T07:49:23;11.60;1.00
14924;DHT22;7554;43.600;1.480;2023-03-01T07:51:52;12.00;1.00
14924;DHT22;7554;43.600;1.480;2023-03-01T07:54:19;12.00;1.00
14924;DHT22;7554;43.600;1.480;2023-03-01T07:56:46;12.20;1.00
14924;DHT22;7554;43.600;1.480;2023-03-01T07:59:14;12.30;1.00
14924;DHT22;7554;43.600;1.480;2023-03-01T08:01:41;12.70;1.00
14924;DHT22;7554;43.600;1.480;2023-03-01T08:04:09;13.00;1.00
14924;DHT22;7554;43.600;1.480;2023-03-01T08:06:38;13.60;1.00
14924;DHT22;7554;43.600;1.480;2023-03-01T08:09:05;13.50;1.00
14924;DHT22;7554;43.600;1.480;2023-03-01T08:11:36;14.00;1.00
14924;DHT22;7554;43.600;1.480;2023-03-01T08:14:03;14.80;1.00
14924;DHT22;7554;43.600;1.480;2023-03-01T08:16:31;15.30;1.00
14924;DHT22;7554;43.600;1.480;2023-03-01T08:19:04;15.40;1.00
14924;DHT22;7554;43.600;1.480;2023-03-01T08:21:31;15.50;1.00
14924;DHT22;7554;43.600;1.480;2023-03-01T08:24:02;15.00;1.00
14924;DHT22;7554;43.600;1.480;2023-03-01T08:26:29;14.40;1.00
14924;DHT22;7554;43.600;1.480;2023-03-01T08:28:57;14.20;1.00
14924;DHT22;7554;43.600;1.480;2023-03-01T08:31:25;14.60;1.00
14924;DHT22;7554;43.600;1.480;2023-03-01T08:33:55;14.50;1.00
14924;DHT22;7554;43.600;1.480;2023-03-01T08:36:24;14.00;1.00
14924;DHT22;7554;43.600;1.480;2023-03-01T08:38:52;12.90;1.00
14924;DHT22;7554;43.600;1.480;2023-03-01T08:41:21;10.60;1.00
14924;DHT22;7554;43.600;1.480;2023-03-01T08:43:49;9.40;1.00
14924;DHT22;7554;43.600;1.480;2023-03-01T08:46:16;8.60;1.00
14924;DHT22;7554;43.600;1.480;2023-03-01T08:48:45;8.60;1.00
14924;DHT22;7554;43.600;1.480;2023-03-01T08:51:14;8.40;1.00
14924;DHT22;7554;43.600;1.480;2023-03-01T08:53:43;8.40;1.00
14924;DHT22;7554;43.600;1.480;2023-03-01T08:56:12;8.40;1.00
14924;DHT22;7554;43.600;1.480;2023-03-01T08:58:43;8.40;1.00
14924;DHT22;7554;43.600;1.480;2023-03-01T09:01:13;8.50;1.00
14924;DHT22;7554;43.600;1.480;2023-03-01T09:03:41;8.70;1.00
14924;DHT22;7554;43.600;1.480;2023-03-01T09:06:08;8.40;1.00
14924;DHT22;7554;43.600;1.480;2023-03-01T09:08:37;8.30;1.00
14924;DHT22;7554;43.600;1.480;2023-03-01T09:11:06;8.40;1.00
14924;DHT22;7554;43.600;1.480;2023-03-01T09:13:34;8.60;1.00
14924;DHT22;7554;43.600;1.480;2023-03-01T09:16:06;8.80;1.00
14924;DHT22;7554;43.600;1.480;2023-03-01T09:18:34;8.80;1.00
14924;DHT22;7554;43.600;1.480;2023-03-01T09:21:03;8.90;1.00
14924;DHT22;7554;43.600;1.480;2023-03-01T09:23:33;8.50;1.00
14924;DHT22;7554;43.600;1.480;2023-03-01T09:26:02;8.50;1.00
14924;DHT22;7554;43.600;1.480;2023-03-01T09:28:29;8.50;1.00
14924;DHT22;7554;43.600;1.480;2023-03-01T09:30:58;8.50;1.00
14924;DHT22;7554;43.600;1.480;2023-03-01T09:33:28;8.60;1.00
14924;DHT22;7554;43.600;1.480;2023-03-01T09:35:57;8.60;1.00
14924;DHT22;7554;43.600;1.480;2023-03-01T09:38:24;8.70;1.00
14924;DHT22;7554;43.600;1.480;2023-03-01T09:40:52;8.70;1.00
14924;DHT22;7554;43.600;1.480;2023-03-01T09:43:22;9.00;1.00
14924;DHT22;7554;43.600;1.480;2023-03-01T09:45:53;9.00;1.00
14924;DHT22;7554;43.600;1.480;2023-03-01T09:48:25;8.80;1.00
14924;DHT22;7554;43.600;1.480;2023-03-01T09:50:55;8.90;1.00
14924;DHT22;7554;43.600;1.480;2023-03-01T09:53:26;8.90;1.00
14924;DHT22;7554;43.600;1.480;2023-03-01T09:56:01;8.60;1.00
14924;DHT22;7554;43.600;1.480;2023-03-01T09:58:36;8.70;1.00
14924;DHT22;7554;43.600;1.480;2023-03-01T10:01:17;8.80;1.00
14924;DHT22;7554;43.600;1.480;2023-03-01T10:04:00;8.90;1.00
14924;DHT22;7554;43.600;1.480;2023-03-01T10:06:32;9.10;1.00
14924;DHT22;7554;43.600;1.480;2023-03-01T10:09:02;9.20;1.00
14924;DHT22;7554;43.600;1.480;2023-03-01T10:11:35;8.90;1.00
14924;DHT22;7554;43.600;1.480;2023-03-01T10:14:07;8.70;1.00
14924;DHT22;7554;43.600;1.480;2023-03-01T10:16:43;8.30;1.00
14924;DHT22;7554;43.600;1.480;2023-03-01T10:19:17;8.50;1.00
14924;DHT22;7554;43.600;1.480;2023-03-01T10:21:51;8.50;1.00
14924;DHT22;7554;43.600;1.480;2023-03-01T10:24:19;8.60;1.00
14924;DHT22;7554;43.600;1.480;2023-03-01T10:26:55;8.20;1.00
14924;DHT22;7554;43.600;1.480;2023-03-01T10:29:26;8.00;1.00
14924;DHT22;7554;43.600;1.480;2023-03-01T10:31:57;8.00;1.00
14924;DHT22;7554;43.600;1.480;2023-03-01T10:34:28;7.90;1.00
14924;DHT22;7554;43.600;1.480;2023-03-01T10:37:01;7.90;1.00
14924;DHT22;7554;43.600;1.480;2023-03-01T10:39:29;7.80;1.00
14924;DHT22;7554;43.600;1.480;2023-03-01T10:41:58;7.90;1.00
14924;DHT22;7554;43.600;1.480;2023-03-01T10:44:41;7.80;1.00
14924;DHT22;7554;43.600;1.480;2023-03-01T10:47:20;7.60;1.00
14924;DHT22;7554;43.600;1.480;2023-03-01T10:49:57;7.30;1.00
14924;DHT22;7554;43.600;1.480;2023-03-01T10:52:32;7.00;1.00
14924;DHT22;7554;43.600;1.480;2023-03-01T10:55:02;7.10;1.00
14924;DHT22;7554;43.600;1.480;2023-03-01T10:57:38;7.40;1.00
14924;DHT22;7554;43.600;1.480;2023-03-01T11:00:24;7.60;1.00
14924;DHT22;7554;43.600;1.480;2023-03-01T11:03:04;7.60;1.00
14924;DHT22;7554;43.600;1.480;2023-03-01T11:05:36;7.80;1.00
14924;DHT22;7554;43.600;1.480;2023-03-01T11:08:05;7.00;1.00
14924;DHT22;7554;43.600;1.480;2023-03-01T11:10:35;6.90;1.00
14924;DHT22;7554;43.600;1.480;2023-03-01T11:13:07;7.10;1.00
14924;DHT22;7554;43.600;1.480;2023-03-01T11:15:36;7.50;1.00
14924;DHT22;7554;43.600;1.480;2023-03-01T11:18:04;7.40;1.00
14924;DHT22;7554;43.600;1.480;2023-03-01T11:20:34;7.70;1.00
14924;DHT22;7554;43.600;1.480;2023-03-01T11:23:08;7.60;1.00
14924;DHT22;7554;43.600;1.480;2023-03-01T11:25:39;7.60;1.00
14924;DHT22;7554;43.600;1.480;2023-03-01T11:28:13;7.60;1.00
14924;DHT22;7554;43.600;1.480;2023-03-01T11:30:46;7.60;1.00
14924;DHT22;7554;43.600;1.480;2023-03-01T11:33:20;7.50;1.00
14924;DHT22;7554;43.600;1.480;2023-03-01T11:36:00;7.20;1.00
14924;DHT22;7554;43.600;1.480;2023-03-01T11:38:34;7.40;1.00
14924;DHT22;7554;43.600;1.480;2023-03-01T11:41:06;7.50;1.00
14924;DHT22;7554;43.600;1.480;2023-03-01T11:43:38;7.40;1.00
14924;DHT22;7554;43.600;1.480;2023-03-01T11:52:31;7.20;1.00
14924;DHT22;7554;43.600;1.480;2023-03-01T11:55:17;7.40;1.00
14924;DHT22;7554;43.600;1.480;2023-03-01T11:57:57;7.60;1.00
14924;DHT22;7554;43.600;1.480;2023-03-01T12:00:45;7.40;1.00
14924;DHT22;7554;43.600;1.480;2023-03-01T12:03:25;7.10;1.00
14924;DHT22;7554;43.600;1.480;2023-03-01T12:06:12;7.30;1.00
14924;DHT22;7554;43.600;1.480;2023-03-01T12:08:56;7.40;1.00
14924;DHT22;7554;43.600;1.480;2023-03-01T12:11:39;7.50;1.00
14924;DHT22;7554;43.600;1.480;2023-03-01T12:14:30;7.50;1.00
14924;DHT22;7554;43.600;1.480;2023-03-01T12:17:14;7.70;1.00
14924;DHT22;7554;43.600;1.480;2023-03-01T12:19:58;7.70;1.00
14924;DHT22;7554;43.600;1.480;2023-03-01T12:22:34;7.70;1.00
14924;DHT22;7554;43.600;1.480;2023-03-01T12:25:20;7.70;1.00
14924;DHT22;7554;43.600;1.480;2023-03-01T12:28:04;7.80;1.00
14924;DHT22;7554;43.600;1.480;2023-03-01T12:30:45;7.80;1.00
14924;DHT22;7554;43.600;1.480;2023-03-01T12:33:22;7.90;1.00
14924;DHT22;7554;43.600;1.480;2023-03-01T12:36:14;7.90;1.00
14924;DHT22;7554;43.600;1.480;2023-03-01T12:38:49;7.80;1.00
14924;DHT22;7554;43.600;1.480;2023-03-01T12:41:35;7.70;1.00
14924;DHT22;7554;43.600;1.480;2023-03-01T12:44:23;7.60;1.00
14924;DHT22;7554;43.600;1.480;2023-03-01T12:47:09;7.70;1.00
14924;DHT22;7554;43.600;1.480;2023-03-01T12:49:41;7.60;1.00
14924;DHT22;7554;43.600;1.480;2023-03-01T12:52:13;7.80;1.00
14924;DHT22;7554;43.600;1.480;2023-03-01T12:54:42;7.50;1.00
14924;DHT22;7554;43.600;1.480;2023-03-01T12:57:15;7.60;1.00
14924;DHT22;7554;43.600;1.480;2023-03-01T13:00:00;7.60;1.00
14924;DHT22;7554;43.600;1.480;2023-03-01T13:02:39;7.60;1.00
14924;DHT22;7554;43.600;1.480;2023-03-01T13:05:34;7.60;1.00
14924;DHT22;7554;43.600;1.480;2023-03-01T13:08:10;7.80;1.00
14924;DHT22;7554;43.600;1.480;2023-03-01T13:10:45;7.90;1.00
14924;DHT22;7554;43.600;1.480;2023-03-01T13:13:20;7.80;1.00
14924;DHT22;7554;43.600;1.480;2023-03-01T13:15:49;7.60;1.00
14924;DHT22;7554;43.600;1.480;2023-03-01T13:18:34;7.60;1.00
14924;DHT22;7554;43.600;1.480;2023-03-01T13:21:05;7.60;1.00
14924;DHT22;7554;43.600;1.480;2023-03-01T13:23:37;7.60;1.00
14924;DHT22;7554;43.600;1.480;2023-03-01T13:26:09;7.60;1.00
14924;DHT22;7554;43.600;1.480;2023-03-01T13:28:53;7.70;1.00
14924;DHT22;7554;43.600;1.480;2023-03-01T13:34:44;7.70;1.00
14924;DHT22;7554;43.600;1.480;2023-03-01T13:37:26;7.60;1.00
14924;DHT22;7554;43.600;1.480;2023-03-01T13:39:57;7.60;1.00
14924;DHT22;7554;43.600;1.480;2023-03-01T13:42:42;7.50;1.00
14924;DHT22;7554;43.600;1.480;2023-03-01T13:45:36;7.80;1.00
14924;DHT22;7554;43.600;1.480;2023-03-01T13:48:10;7.50;1.00
14924;DHT22;7554;43.600;1.480;2023-03-01T13:50:46;7.50;1.00
14924;DHT22;7554;43.600;1.480;2023-03-01T13:53:18;7.50;1.00
14924;DHT22;7554;43.600;1.480;2023-03-01T13:55:48;7.60;1.00
14924;DHT22;7554;43.600;1.480;2023-03-01T13:58:21;7.60;1.00
14924;DHT22;7554;43.600;1.480;2023-03-01T14:00:57;7.50;1.00
14924;DHT22;7554;43.600;1.480;2023-03-01T14:03:25;7.50;1.00
14924;DHT22;7554;43.600;1.480;2023-03-01T14:06:05;7.60;1.00
14924;DHT22;7554;43.600;1.480;2023-03-01T14:08:34;7.60;1.00
14924;DHT22;7554;43.600;1.480;2023-03-01T14:14:29;7.50;1.00
14924;DHT22;7554;43.600;1.480;2023-03-01T14:17:06;7.50;1.00
14924;DHT22;7554;43.600;1.480;2023-03-01T14:19:47;7.60;1.00
14924;DHT22;7554;43.600;1.480;2023-03-01T14:22:24;7.50;1.00
14924;DHT22;7554;43.600;1.480;2023-03-01T14:24:56;7.50;1.00
14924;DHT22;7554;43.600;1.480;2023-03-01T14:27:28;7.50;1.00
14924;DHT22;7554;43.600;1.480;2023-03-01T14:30:01;7.50;1.00
14924;DHT22;7554;43.600;1.480;2023-03-01T14:32:31;7.50;1.00
14924;DHT22;7554;43.600;1.480;2023-03-01T14:35:00;7.50;1.00
14924;DHT22;7554;43.600;1.480;2023-03-01T14:37:35;7.40;1.00
14924;DHT22;7554;43.600;1.480;2023-03-01T14:40:21;7.50;1.00
14924;DHT22;7554;43.600;1.480;2023-03-01T14:42:51;7.50;1.00
14924;DHT22;7554;43.600;1.480;2023-03-01T14:45:20;7.50;1.00
14924;DHT22;7554;43.600;1.480;2023-03-01T14:47:48;7.30;1.00
14924;DHT22;7554;43.600;1.480;2023-03-01T14:50:22;7.40;1.00
14924;DHT22;7554;43.600;1.480;2023-03-01T14:52:55;7.30;1.00
14924;DHT22;7554;43.600;1.480;2023-03-01T14:55:30;7.30;1.00
14924;DHT22;7554;43.600;1.480;2023-03-01T14:58:04;7.40;1.00
14924;DHT22;7554;43.600;1.480;2023-03-01T15:00:33;7.40;1.00
14924;DHT22;7554;43.600;1.480;2023-03-01T15:03:11;7.40;1.00
14924;DHT22;7554;43.600;1.480;2023-03-01T15:05:46;7.30;1.00
14924;DHT22;7554;43.600;1.480;2023-03-01T15:08:23;7.40;1.00
14924;DHT22;7554;43.600;1.480;2023-03-01T15:11:00;7.30;1.00
14924;DHT22;7554;43.600;1.480;2023-03-01T15:13:33;7.30;1.00
14924;DHT22;7554;43.600;1.480;2023-03-01T15:16:07;7.30;1.00
14924;DHT22;7554;43.600;1.480;2023-03-01T15:18:44;7.20;1.00
14924;DHT22;7554;43.600;1.480;2023-03-01T15:21:23;7.20;1.00
14924;DHT22;7554;43.600;1.480;2023-03-01T15:23:57;7.20;1.00
14924;DHT22;7554;43.600;1.480;2023-03-01T15:26:30;7.10;1.00
14924;DHT22;7554;43.600;1.480;2023-03-01T15:28:59;7.20;1.00
14924;DHT22;7554;43.600;1.480;2023-03-01T15:31:28;7.20;1.00
14924;DHT22;7554;43.600;1.480;2023-03-01T15:34:11;7.20;1.00
14924;DHT22;7554;43.600;1.480;2023-03-01T15:36:48;7.20;1.00
14924;DHT22;7554;43.600;1.480;2023-03-01T15:39:44;7.20;1.00
14924;DHT22;7554;43.600;1.480;2023-03-01T15:42:37;7.20;1.00
14924;DHT22;7554;43.600;1.480;2023-03-01T15:45:09;7.20;1.00
14924;DHT22;7554;43.600;1.480;2023-03-01T15:47:39;7.10;1.00
14924;DHT22;7554;43.600;1.480;2023-03-01T15:50:16;7.10;1.00
14924;DHT22;7554;43.600;1.480;2023-03-01T15:52:44;7.10;1.00
14924;DHT22;7554;43.600;1.480;2023-03-01T15:55:18;7.10;1.00
14924;DHT22;7554;43.600;1.480;2023-03-01T15:57:48;7.10;1.00
14924;DHT22;7554;43.600;1.480;2023-03-01T16:00:17;7.10;1.00
14924;DHT22;7554;43.600;1.480;2023-03-01T16:02:45;6.90;1.00
14924;DHT22;7554;43.600;1.480;2023-03-01T16:05:18;7.00;1.00
14924;DHT22;7554;43.600;1.480;2023-03-01T16:07:46;6.90;1.00
14924;DHT22;7554;43.600;1.480;2023-03-01T16:10:15;7.00;1.00
14924;DHT22;7554;43.600;1.480;2023-03-01T16:12:43;7.00;1.00
14924;DHT22;7554;43.600;1.480;2023-03-01T16:15:15;7.00;1.00
14924;DHT22;7554;43.600;1.480;2023-03-01T16:17:44;6.90;1.00
14924;DHT22;7554;43.600;1.480;2023-03-01T16:20:12;6.90;1.00
14924;DHT22;7554;43.600;1.480;2023-03-01T16:22:41;6.90;1.00
14924;DHT22;7554;43.600;1.480;2023-03-01T16:25:10;6.80;1.00
14924;DHT22;7554;43.600;1.480;2023-03-01T16:27:42;6.70;1.00
14924;DHT22;7554;43.600;1.480;2023-03-01T16:30:10;6.80;1.00
14924;DHT22;7554;43.600;1.480;2023-03-01T16:32:38;6.80;1.00
14924;DHT22;7554;43.600;1.480;2023-03-01T16:35:07;6.80;1.00
14924;DHT22;7554;43.600;1.480;2023-03-01T16:37:36;6.70;1.00
14924;DHT22;7554;43.600;1.480;2023-03-01T16:40:05;6.70;1.00
14924;DHT22;7554;43.600;1.480;2023-03-01T16:42:33;6.70;1.00
14924;DHT22;7554;43.600;1.480;2023-03-01T16:45:03;6.60;1.00
14924;DHT22;7554;43.600;1.480;2023-03-01T16:47:33;6.60;1.00
14924;DHT22;7554;43.600;1.480;2023-03-01T16:50:01;6.50;1.00
14924;DHT22;7554;43.600;1.480;2023-03-01T16:52:28;6.60;1.00
14924;DHT22;7554;43.600;1.480;2023-03-01T16:54:56;6.50;1.00